createdAt,value
2022-12-12T00:01:45.204Z,21.83
2022-12-12T00:04:13.097Z,21.77
2022-12-12T00:06:40.751Z,17.67
2022-12-12T00:09:09.658Z,18.73
2022-12-12T00:11:37.635Z,19.40
2022-12-12T00:14:07.276Z,18.57
2022-12-12T00:16:35.059Z,19.90
2022-12-12T00:19:03.377Z,16.43
2022-12-12T00:21:30.858Z,23.10
2022-12-12T00:23:58.996Z,16.93
2022-12-12T00:26:31.421Z,21.30
2022-12-12T00:29:00.808Z,17.67
2022-12-12T00:31:29.377Z,18.20
2022-12-12T00:33:58.018Z,21.57
2022-12-12T00:36:27.957Z,21.23
2022-12-12T00:38:56.524Z,21.43
2022-12-12T00:41:24.386Z,16.67
2022-12-12T00:43:52.521Z,16.20
2022-12-12T00:46:22.534Z,21.60
2022-12-12T00:48:51.013Z,22.13
2022-12-12T00:51:20.568Z,18.27
2022-12-12T00:53:48.766Z,19.57
2022-12-12T00:56:18.032Z,18.17
2022-12-12T00:58:46.585Z,16.50
2022-12-12T01:01:19.851Z,19.60
2022-12-12T01:03:47.844Z,21.03
2022-12-12T01:06:15.719Z,20.40
2022-12-12T01:08:43.457Z,20.73
2022-12-12T01:11:12.417Z,19.10
2022-12-12T01:13:41.178Z,21.47
2022-12-12T01:16:09.180Z,21.83
2022-12-12T01:18:37.325Z,22.30
2022-12-12T01:21:08.819Z,21.63
2022-12-12T01:23:36.419Z,22.70
2022-12-12T01:26:06.751Z,18.20
2022-12-12T01:28:35.506Z,20.20
2022-12-12T01:31:03.194Z,21.40
2022-12-12T01:33:30.854Z,18.30
2022-12-12T01:35:58.220Z,16.37
2022-12-12T01:38:25.938Z,17.53
2022-12-12T01:40:54.100Z,16.43
2022-12-12T01:43:24.709Z,20.10
2022-12-12T01:46:08.818Z,21.50
2022-12-12T01:48:58.981Z,25.20
2022-12-12T01:51:27.815Z,15.93
2022-12-12T01:54:06.850Z,22.97
2022-12-12T01:56:35.095Z,17.37
2022-12-12T01:59:05.312Z,22.07
2022-12-12T02:01:33.573Z,17.00
2022-12-12T02:04:02.448Z,17.33
2022-12-12T02:06:30.851Z,17.47
2022-12-12T02:09:05.397Z,19.73
2022-12-12T02:11:35.711Z,23.80
2022-12-12T02:14:03.391Z,21.07
2022-12-12T02:16:45.673Z,19.93
2022-12-12T02:19:37.670Z,19.07
2022-12-12T02:22:19.107Z,20.47
2022-12-12T02:25:20.597Z,20.67
2022-12-12T02:27:56.989Z,18.93
2022-12-12T02:30:37.806Z,16.17
2022-12-12T02:33:42.472Z,20.80
2022-12-12T02:36:20.940Z,21.07
2022-12-12T02:38:53.931Z,16.53
2022-12-12T02:41:30.332Z,18.57
2022-12-12T02:44:18.070Z,17.83
2022-12-12T02:46:57.670Z,17.10
2022-12-12T02:49:39.259Z,18.80
2022-12-12T02:52:09.158Z,19.40
2022-12-12T02:54:37.332Z,20.33
2022-12-12T02:57:12.719Z,14.20
2022-12-12T02:59:42.852Z,18.50
2022-12-12T03:02:33.297Z,15.00
2022-12-12T03:05:41.474Z,19.83
2022-12-12T03:08:32.021Z,16.70
2022-12-12T03:11:03.685Z,16.03
2022-12-12T03:13:43.094Z,14.77
2022-12-12T03:16:13.190Z,17.47
2022-12-12T03:18:58.728Z,13.63
2022-12-12T03:21:39.880Z,14.30
2022-12-12T03:24:22.160Z,16.77
2022-12-12T03:26:53.763Z,13.50
2022-12-12T03:29:28.567Z,12.47
2022-12-12T03:32:02.043Z,13.37
2022-12-12T03:34:56.553Z,12.70
2022-12-12T03:37:31.741Z,15.30
2022-12-12T03:40:04.984Z,12.23
2022-12-12T03:42:40.636Z,16.50
2022-12-12T03:45:24.504Z,18.80
2022-12-12T03:48:10.772Z,17.07
2022-12-12T03:51:12.811Z,12.63
2022-12-12T03:54:05.942Z,15.00
2022-12-12T03:56:45.028Z,15.23
2022-12-12T03:59:21.536Z,13.27
2022-12-12T04:01:56.320Z,15.80
2022-12-12T04:04:36.795Z,13.90
2022-12-12T04:07:12.058Z,16.60
2022-12-12T04:09:57.929Z,18.43
2022-12-12T04:12:51.778Z,19.93
2022-12-12T04:15:40.677Z,17.70
2022-12-12T04:18:16.445Z,16.03
2022-12-12T04:21:37.244Z,18.07
2022-12-12T04:24:23.539Z,16.27
2022-12-12T04:27:18.336Z,20.00
2022-12-12T04:29:48.966Z,24.90
2022-12-12T04:32:25.331Z,18.10
2022-12-12T04:35:02.232Z,22.33
2022-12-12T04:37:36.107Z,21.70
2022-12-12T04:40:07.919Z,18.90
2022-12-12T04:42:43.567Z,16.93
2022-12-12T04:45:20.733Z,16.00
2022-12-12T04:47:52.394Z,19.47
2022-12-12T04:50:23.954Z,17.07
2022-12-12T04:52:55.715Z,30.93
2022-12-12T04:55:33.285Z,16.37
2022-12-12T04:58:02.504Z,16.17
2022-12-12T05:00:47.856Z,15.50
2022-12-12T05:03:52.258Z,20.87
2022-12-12T05:06:30.602Z,12.40
2022-12-12T05:08:59.092Z,17.83
2022-12-12T05:11:26.794Z,19.50
2022-12-12T05:13:54.092Z,17.87
2022-12-12T05:16:42.433Z,16.07
2022-12-12T05:19:09.988Z,15.97
2022-12-12T05:21:37.473Z,17.70
2022-12-12T05:24:05.434Z,17.67
2022-12-12T05:26:34.557Z,18.60
2022-12-12T05:29:07.205Z,20.37
2022-12-12T05:31:35.918Z,20.77
2022-12-12T05:34:04.674Z,13.57
2022-12-12T05:36:32.173Z,14.77
2022-12-12T05:38:59.377Z,14.07
2022-12-12T05:41:26.881Z,17.77
2022-12-12T05:43:54.140Z,18.87
2022-12-12T05:46:22.188Z,21.90
2022-12-12T05:48:50.929Z,15.83
2022-12-12T05:51:19.161Z,24.93
2022-12-12T05:53:47.473Z,21.13
2022-12-12T05:56:14.961Z,19.83
2022-12-12T05:58:42.624Z,20.97
2022-12-12T06:01:10.837Z,16.47
2022-12-12T06:03:39.300Z,19.73
2022-12-12T06:06:07.339Z,20.57
2022-12-12T06:08:35.791Z,19.00
2022-12-12T06:11:08.005Z,19.60
2022-12-12T06:13:36.717Z,23.17
2022-12-12T06:16:14.705Z,22.03
2022-12-12T06:18:43.014Z,21.10
2022-12-12T06:21:12.837Z,23.13
2022-12-12T06:23:41.469Z,25.03
2022-12-12T06:26:11.532Z,20.93
2022-12-12T06:28:39.476Z,25.20
2022-12-12T06:31:11.464Z,20.03
2022-12-12T06:33:41.379Z,20.00
2022-12-12T06:36:23.889Z,25.57
2022-12-12T06:38:57.888Z,20.70
2022-12-12T06:41:27.571Z,19.97
2022-12-12T06:43:56.035Z,22.87
2022-12-12T06:46:26.221Z,23.80
2022-12-12T06:48:58.061Z,19.00
2022-12-12T06:51:29.392Z,21.87
2022-12-12T06:53:57.435Z,22.73
2022-12-12T06:56:26.353Z,24.90
2022-12-12T06:58:54.607Z,26.20
2022-12-12T07:01:23.792Z,26.00
2022-12-12T07:03:52.088Z,25.20
2022-12-12T07:06:22.511Z,20.50
2022-12-12T07:08:50.485Z,19.80
2022-12-12T07:11:24.389Z,25.07
2022-12-12T07:13:52.992Z,22.00
2022-12-12T07:16:20.948Z,24.90
2022-12-12T07:18:48.736Z,25.87
2022-12-12T07:21:18.585Z,25.87
2022-12-12T07:23:45.930Z,27.13
2022-12-12T07:26:22.737Z,26.93
2022-12-12T07:28:51.662Z,25.93
2022-12-12T07:31:25.350Z,24.50
2022-12-12T07:33:55.045Z,23.27
2022-12-12T07:36:23.534Z,21.57
2022-12-12T07:38:50.666Z,24.97
2022-12-12T07:41:20.437Z,28.00
2022-12-12T07:43:48.457Z,20.50
2022-12-12T07:46:22.732Z,23.83
2022-12-12T07:48:50.427Z,19.37
2022-12-12T07:51:18.760Z,25.27
2022-12-12T07:53:46.488Z,20.43
2022-12-12T07:56:16.062Z,23.57
2022-12-12T07:58:43.834Z,23.70
2022-12-12T08:01:23.572Z,20.53
2022-12-12T08:03:51.768Z,23.23
2022-12-12T08:06:21.399Z,23.73
2022-12-12T08:08:50.060Z,21.87
2022-12-12T08:11:21.257Z,23.70
2022-12-12T08:13:49.033Z,19.67
2022-12-12T08:16:23.124Z,22.40
2022-12-12T08:18:53.232Z,21.33
2022-12-12T08:21:25.321Z,23.53
2022-12-12T08:24:01.291Z,17.47
2022-12-12T08:26:34.629Z,18.03
2022-12-12T08:29:02.478Z,20.17
2022-12-12T08:31:30.598Z,22.97
2022-12-12T08:33:59.410Z,17.30
2022-12-12T08:36:32.574Z,19.63
2022-12-12T08:39:08.327Z,19.27
2022-12-12T08:41:38.500Z,22.27
2022-12-12T08:44:07.272Z,17.13
2022-12-12T08:46:35.533Z,17.40
2022-12-12T08:49:03.105Z,20.07
2022-12-12T08:51:30.858Z,19.33
2022-12-12T08:53:58.366Z,18.47
2022-12-12T08:56:27.422Z,14.70
2022-12-12T08:58:54.700Z,17.90
2022-12-12T09:01:24.766Z,20.70
2022-12-12T09:03:54.049Z,16.17
2022-12-12T09:06:22.693Z,16.63
2022-12-12T09:08:50.294Z,16.73
2022-12-12T09:11:19.248Z,15.87
2022-12-12T09:13:46.492Z,22.67
2022-12-12T09:16:15.634Z,25.90
2022-12-12T09:18:48.636Z,19.27
2022-12-12T09:21:17.954Z,18.50
2022-12-12T09:23:45.836Z,16.43
2022-12-12T09:26:13.829Z,13.83
2022-12-12T09:28:41.538Z,14.93
2022-12-12T09:31:11.361Z,11.87
2022-12-12T09:33:39.330Z,12.27
2022-12-12T09:36:08.618Z,14.60
2022-12-12T09:38:36.645Z,14.40
2022-12-12T09:41:10.752Z,13.60
2022-12-12T09:43:57.815Z,10.97
2022-12-12T09:46:46.291Z,12.30
2022-12-12T09:49:25.272Z,11.30
2022-12-12T09:51:53.575Z,12.13
2022-12-12T09:54:23.749Z,15.80
2022-12-12T09:57:13.823Z,14.27
2022-12-12T09:59:49.379Z,17.33
2022-12-12T10:02:54.837Z,14.50
2022-12-12T10:05:38.828Z,13.23
2022-12-12T10:08:11.921Z,13.17
2022-12-12T10:10:42.011Z,13.93
2022-12-12T10:13:25.577Z,10.20
2022-12-12T10:15:56.389Z,15.60
2022-12-12T10:18:41.375Z,16.30
2022-12-12T10:21:18.049Z,10.70
2022-12-12T10:23:53.852Z,15.37
2022-12-12T10:26:25.825Z,14.90
2022-12-12T10:28:59.240Z,10.47
2022-12-12T10:31:52.291Z,14.90
2022-12-12T10:34:39.126Z,12.03
2022-12-12T10:37:28.532Z,10.13
2022-12-12T10:40:02.087Z,11.67
2022-12-12T10:42:42.150Z,12.33
2022-12-12T10:45:22.071Z,7.87
2022-12-12T10:47:49.965Z,10.23
2022-12-12T10:50:40.907Z,9.60
2022-12-12T10:53:10.434Z,11.30
2022-12-12T10:55:53.728Z,9.57
2022-12-12T10:58:26.499Z,10.57
2022-12-12T11:01:03.931Z,11.27
2022-12-12T11:03:41.337Z,9.00
2022-12-12T11:06:15.647Z,13.00
2022-12-12T11:08:54.667Z,9.07
2022-12-12T11:11:27.383Z,9.13
2022-12-12T11:14:00.691Z,10.87
2022-12-12T11:16:42.790Z,11.53
2022-12-12T11:19:25.027Z,8.93
2022-12-12T11:21:55.082Z,12.03
2022-12-12T11:24:29.808Z,14.07
2022-12-12T11:27:06.542Z,13.07
2022-12-12T11:29:55.352Z,10.97
2022-12-12T11:32:27.907Z,11.40
2022-12-12T11:34:58.357Z,12.23
2022-12-12T11:37:33.945Z,11.27
2022-12-12T11:40:01.392Z,10.43
2022-12-12T11:42:32.174Z,9.53
2022-12-12T11:45:05.932Z,8.77
2022-12-12T11:47:45.472Z,10.83
2022-12-12T11:50:26.089Z,8.70
2022-12-12T11:52:56.523Z,9.07
2022-12-12T11:55:47.852Z,12.13
2022-12-12T11:58:46.105Z,11.27
2022-12-12T12:01:18.108Z,9.80
2022-12-12T12:04:05.246Z,9.77
2022-12-12T12:06:55.666Z,13.27
2022-12-12T12:09:56.723Z,13.10
2022-12-12T12:12:29.810Z,9.60
2022-12-12T12:15:25.938Z,13.03
2022-12-12T12:17:58.008Z,13.33
2022-12-12T12:21:01.818Z,12.67
2022-12-12T12:24:00.364Z,12.07
2022-12-12T12:27:02.412Z,11.33
2022-12-12T12:30:00.534Z,10.30
2022-12-12T12:32:53.913Z,12.07
2022-12-12T12:35:47.049Z,10.60
2022-12-12T12:38:22.342Z,9.87
2022-12-12T12:41:01.053Z,12.80
2022-12-12T12:43:50.213Z,11.40
2022-12-12T12:50:21.756Z,15.20
2022-12-12T12:53:17.795Z,13.00
2022-12-12T12:55:51.306Z,12.47
2022-12-12T12:58:26.352Z,13.77
2022-12-12T13:01:16.886Z,16.67
2022-12-12T13:04:13.415Z,15.73
2022-12-12T13:06:48.862Z,16.07
2022-12-12T13:09:24.769Z,12.77
2022-12-12T13:12:00.397Z,12.33
2022-12-12T13:14:47.971Z,13.83
2022-12-12T13:17:31.121Z,15.80
2022-12-12T13:19:58.923Z,14.57
2022-12-12T13:22:53.901Z,14.47
2022-12-12T13:25:38.596Z,17.23
2022-12-12T13:28:17.105Z,15.80
2022-12-12T13:31:11.145Z,15.67
2022-12-12T13:33:46.787Z,11.07
2022-12-12T13:36:29.295Z,18.60
2022-12-12T13:39:03.036Z,20.87
2022-12-12T13:41:57.871Z,15.30
2022-12-12T13:44:47.772Z,12.10
2022-12-12T13:47:18.474Z,15.17
2022-12-12T13:50:01.745Z,17.77
2022-12-12T13:52:42.829Z,15.00
2022-12-12T13:55:13.375Z,17.37
2022-12-12T13:58:02.801Z,15.77
2022-12-12T14:00:35.717Z,20.80
2022-12-12T14:03:12.076Z,16.60
2022-12-12T14:05:42.544Z,16.90
2022-12-12T14:08:12.794Z,18.10
2022-12-12T14:10:45.398Z,21.33
2022-12-12T14:13:41.630Z,19.47
2022-12-12T14:16:15.946Z,18.10
2022-12-12T14:18:52.409Z,21.07
2022-12-12T14:21:22.450Z,21.30
2022-12-12T14:23:52.778Z,18.07
2022-12-12T14:26:45.770Z,21.90
2022-12-12T14:29:18.745Z,19.67
2022-12-12T14:31:55.086Z,23.37
2022-12-12T14:34:42.674Z,19.83
2022-12-12T14:37:32.452Z,19.97
2022-12-12T14:40:16.747Z,22.87
2022-12-12T14:43:20.976Z,22.73
2022-12-12T14:45:51.685Z,16.80
2022-12-12T14:48:25.286Z,21.53
2022-12-12T14:50:58.574Z,17.10
2022-12-12T14:53:38.246Z,14.67
2022-12-12T14:56:20.242Z,19.17
2022-12-12T14:58:55.832Z,24.37
2022-12-12T15:01:40.554Z,17.63
2022-12-12T15:04:14.422Z,16.23
2022-12-12T15:07:10.946Z,13.33
2022-12-12T15:09:40.245Z,17.73
2022-12-12T15:12:10.682Z,18.20
2022-12-12T15:14:48.648Z,15.57
2022-12-12T15:17:24.226Z,14.43
2022-12-12T15:20:09.715Z,16.00
2022-12-12T15:22:39.320Z,15.50
2022-12-12T15:25:19.481Z,26.03
2022-12-12T15:27:55.680Z,15.27
2022-12-12T15:30:33.650Z,19.73
2022-12-12T15:33:03.351Z,12.37
2022-12-12T15:35:32.955Z,14.83
2022-12-12T15:38:06.593Z,11.63
2022-12-12T15:40:35.978Z,14.00
2022-12-12T15:43:12.233Z,13.87
2022-12-12T15:45:43.619Z,18.37
2022-12-12T15:48:16.257Z,18.23
2022-12-12T15:50:43.920Z,16.17
2022-12-12T15:53:31.511Z,14.03
2022-12-12T15:56:11.829Z,13.07
2022-12-12T15:58:42.595Z,16.87
2022-12-12T16:01:20.354Z,14.70
2022-12-12T16:04:04.889Z,13.40
2022-12-12T16:06:35.558Z,13.83
2022-12-12T16:09:12.122Z,13.07
2022-12-12T16:11:42.719Z,14.70
2022-12-12T16:14:27.110Z,13.53
2022-12-12T16:17:25.097Z,11.87
2022-12-12T16:19:55.211Z,16.43
2022-12-12T16:22:47.280Z,11.80
2022-12-12T16:25:32.604Z,12.60
2022-12-12T16:28:09.958Z,14.77
2022-12-12T16:30:39.711Z,14.27
2022-12-12T16:33:34.883Z,13.67
2022-12-12T16:36:14.561Z,15.07
2022-12-12T16:38:43.345Z,15.03
2022-12-12T16:41:18.592Z,13.73
2022-12-12T16:43:46.657Z,16.43
2022-12-12T16:46:25.613Z,15.33
2022-12-12T16:48:53.516Z,16.77
2022-12-12T16:51:27.976Z,16.90
2022-12-12T16:53:56.597Z,14.03
2022-12-12T16:56:24.943Z,14.90
2022-12-12T16:58:53.532Z,16.47
2022-12-12T17:01:21.283Z,23.57
2022-12-12T17:03:49.919Z,20.33
2022-12-12T17:06:18.427Z,15.37
2022-12-12T17:08:46.383Z,17.67
2022-12-12T17:11:13.829Z,14.90
2022-12-12T17:13:49.247Z,13.00
2022-12-12T17:16:16.665Z,16.60
2022-12-12T17:18:44.291Z,18.90
2022-12-12T17:21:11.543Z,17.83
2022-12-12T17:23:40.762Z,15.77
2022-12-12T17:26:09.286Z,19.00
2022-12-12T17:28:36.905Z,15.57
2022-12-12T17:31:08.703Z,13.40
2022-12-12T17:33:42.307Z,15.13
2022-12-12T17:36:16.896Z,15.63
2022-12-12T17:38:45.735Z,18.63
2022-12-12T17:41:14.621Z,15.63
2022-12-12T17:43:42.602Z,12.70
2022-12-12T17:46:14.805Z,12.67
2022-12-12T17:48:46.762Z,17.07
2022-12-12T17:51:20.389Z,13.80
2022-12-12T17:53:48.788Z,18.00
2022-12-12T17:56:18.569Z,15.60
2022-12-12T17:58:48.006Z,10.70
2022-12-12T18:01:23.356Z,14.37
2022-12-12T18:03:51.864Z,18.70
2022-12-12T18:06:21.073Z,18.43
2022-12-12T18:08:49.391Z,15.37
2022-12-12T18:11:19.746Z,15.37
2022-12-12T18:13:50.540Z,14.67
2022-12-12T18:16:18.597Z,13.93
2022-12-12T18:18:54.005Z,15.47
2022-12-12T18:21:51.767Z,15.87
2022-12-12T18:24:12.618Z,15.30
2022-12-12T18:26:40.504Z,14.10
2022-12-12T18:29:12.762Z,16.53
2022-12-12T18:31:40.258Z,14.87
2022-12-12T18:34:08.346Z,15.23
2022-12-12T18:36:35.865Z,15.17
2022-12-12T18:39:05.414Z,15.60
2022-12-12T18:41:33.266Z,13.90
2022-12-12T18:44:08.828Z,12.50
2022-12-12T18:46:42.447Z,14.97
2022-12-12T18:49:16.106Z,14.50
2022-12-12T18:51:44.792Z,15.60
2022-12-12T18:54:15.480Z,14.27
2022-12-12T18:56:47.462Z,15.80
2022-12-12T18:59:15.992Z,16.47
2022-12-12T19:01:43.885Z,14.57
2022-12-12T19:04:15.124Z,18.50
2022-12-12T19:06:45.634Z,11.87
2022-12-12T19:09:18.226Z,14.60
2022-12-12T19:11:45.942Z,13.70
2022-12-12T19:14:16.898Z,13.90
2022-12-12T19:16:44.928Z,18.00
2022-12-12T19:19:13.223Z,14.60
2022-12-12T19:21:41.795Z,17.67
2022-12-12T19:24:12.733Z,14.57
2022-12-12T19:26:44.079Z,15.23
2022-12-12T19:29:15.342Z,13.70
2022-12-12T19:31:43.822Z,15.17
2022-12-12T19:34:13.833Z,18.50
2022-12-12T19:36:42.621Z,17.30
2022-12-12T19:39:12.832Z,15.37
2022-12-12T19:41:40.587Z,18.10
2022-12-12T19:44:13.191Z,15.27
2022-12-12T19:46:47.912Z,19.20
2022-12-12T19:49:16.910Z,16.60
2022-12-12T19:51:45.426Z,15.80
2022-12-12T19:54:20.933Z,16.47
2022-12-12T19:56:48.200Z,19.03
2022-12-12T19:59:17.936Z,16.10
2022-12-12T20:01:46.361Z,16.53
2022-12-12T20:04:15.915Z,17.77
2022-12-12T20:06:46.112Z,17.60
2022-12-12T20:09:16.987Z,18.23
2022-12-12T20:11:45.565Z,16.63
2022-12-12T20:14:18.605Z,17.80
2022-12-12T20:16:47.289Z,16.27
2022-12-12T20:19:15.816Z,19.13
2022-12-12T20:22:02.028Z,17.07
2022-12-12T20:24:30.815Z,18.67
2022-12-12T20:27:00.017Z,16.27
2022-12-12T20:29:28.126Z,15.00
2022-12-12T20:31:55.683Z,19.47
2022-12-12T20:34:25.196Z,18.40
2022-12-12T20:36:55.824Z,23.13
2022-12-12T20:39:25.183Z,18.13
2022-12-12T20:41:53.936Z,19.77
2022-12-12T20:44:24.524Z,17.97
2022-12-12T20:46:52.309Z,18.00
2022-12-12T20:49:22.515Z,15.97
2022-12-12T20:51:58.267Z,17.40
2022-12-12T20:54:29.153Z,21.23
2022-12-12T20:56:58.750Z,18.93
2022-12-12T20:59:27.080Z,16.37
2022-12-12T21:01:55.081Z,21.20
2022-12-12T21:04:24.576Z,16.47
2022-12-12T21:06:52.257Z,22.27
2022-12-12T21:09:25.071Z,17.00
2022-12-12T21:11:55.038Z,14.60
2022-12-12T21:14:22.851Z,21.97
2022-12-12T21:16:50.462Z,19.20
2022-12-12T21:19:19.119Z,17.80
2022-12-12T21:21:46.677Z,21.97
2022-12-12T21:24:17.235Z,18.03
2022-12-12T21:26:46.459Z,20.20
2022-12-12T21:29:15.639Z,23.53
2022-12-12T21:31:50.278Z,18.43
2022-12-12T21:34:21.140Z,18.67
2022-12-12T21:36:52.922Z,16.70
2022-12-12T21:39:22.407Z,16.13
2022-12-12T21:41:51.682Z,19.83
2022-12-12T21:44:20.380Z,19.23
2022-12-12T21:46:48.021Z,20.47
2022-12-12T21:49:28.333Z,18.20
2022-12-12T21:52:01.418Z,16.33
2022-12-12T21:54:30.613Z,16.60
2022-12-12T21:56:59.338Z,26.90
2022-12-12T21:59:27.627Z,18.00
2022-12-12T22:01:57.154Z,20.13
2022-12-12T22:04:27.050Z,16.60
2022-12-12T22:06:54.578Z,16.33
2022-12-12T22:09:22.259Z,20.70
2022-12-12T22:11:52.213Z,17.77
2022-12-12T22:14:21.194Z,16.57
2022-12-12T22:16:49.132Z,21.03
2022-12-12T22:19:18.104Z,18.60
2022-12-12T22:21:47.502Z,16.17
2022-12-12T22:24:16.847Z,20.57
2022-12-12T22:26:46.648Z,16.77
2022-12-12T22:29:18.278Z,16.17
2022-12-12T22:31:46.253Z,15.90
2022-12-12T22:34:16.909Z,14.77
2022-12-12T22:36:45.541Z,19.63
2022-12-12T22:39:27.026Z,20.40
2022-12-12T22:41:56.141Z,16.80
2022-12-12T22:44:26.084Z,16.23
2022-12-12T22:46:55.546Z,15.97
2022-12-12T22:49:26.342Z,16.07
2022-12-12T22:51:57.604Z,16.37
2022-12-12T22:54:26.564Z,19.13
2022-12-12T22:56:54.141Z,17.93
2022-12-12T22:59:21.832Z,15.77
2022-12-12T23:01:49.217Z,22.73
2022-12-12T23:04:17.579Z,20.43
2022-12-12T23:06:45.123Z,15.50
2022-12-12T23:09:17.141Z,14.33
2022-12-12T23:11:45.408Z,17.77
2022-12-12T23:14:16.357Z,16.93
2022-12-12T23:16:44.786Z,19.53
2022-12-12T23:19:15.467Z,16.93
2022-12-12T23:21:43.155Z,16.97
2022-12-12T23:24:10.912Z,20.17
2022-12-12T23:26:38.885Z,17.10
2022-12-12T23:29:09.362Z,19.50
2022-12-12T23:31:40.044Z,17.40
2022-12-12T23:34:13.564Z,20.83
2022-12-12T23:36:40.923Z,19.73
2022-12-12T23:39:08.765Z,20.27
2022-12-12T23:41:36.884Z,17.13
2022-12-12T23:44:05.806Z,20.60
2022-12-12T23:46:33.800Z,17.77
2022-12-12T23:49:08.065Z,17.13
2022-12-12T23:51:40.671Z,21.80
2022-12-12T23:54:11.610Z,15.80
2022-12-12T23:56:39.950Z,19.43
2022-12-12T23:59:10.673Z,17.37
